createdAt,value
2017-04-27T00:00:08.857Z,72.90
2017-04-27T00:02:37.324Z,72.40
2017-04-27T00:05:05.713Z,73.20
2017-04-27T00:07:33.989Z,72.50
2017-04-27T00:10:02.309Z,73.50
2017-04-27T00:12:30.643Z,74.10
2017-04-27T00:14:58.922Z,74.30
2017-04-27T00:17:27.405Z,74.10
2017-04-27T00:19:55.776Z,74.90
2017-04-27T00:22:24.048Z,75.20
2017-04-27T00:24:52.541Z,75.30
2017-04-27T00:27:20.910Z,75.30
2017-04-27T00:29:49.193Z,75.20
2017-04-27T00:32:17.776Z,75.30
2017-04-27T00:34:46.151Z,75.50
2017-04-27T00:37:14.438Z,75.80
2017-04-27T00:39:42.804Z,75.80
2017-04-27T00:42:11.085Z,75.70
2017-04-27T00:44:39.361Z,75.40
2017-04-27T00:47:07.665Z,75.60
2017-04-27T00:49:36.017Z,76.00
2017-04-27T00:52:04.389Z,75.80
2017-04-27T00:54:32.801Z,75.50
2017-04-27T00:57:01.154Z,76.20
2017-04-27T00:59:29.429Z,76.30
2017-04-27T01:01:57.952Z,76.30
2017-04-27T01:04:27.010Z,76.80
2017-04-27T01:06:55.291Z,77.00
2017-04-27T01:09:23.612Z,77.20
2017-04-27T01:11:52.625Z,77.20
2017-04-27T01:14:20.929Z,77.90
2017-04-27T01:16:49.242Z,77.10
2017-04-27T01:19:17.517Z,77.20
2017-04-27T01:21:45.784Z,77.10
2017-04-27T01:24:14.103Z,77.90
2017-04-27T01:26:42.385Z,78.10
2017-04-27T01:29:10.669Z,78.00
2017-04-27T01:31:39.180Z,78.00
2017-04-27T01:34:07.465Z,77.50
2017-04-27T01:36:35.753Z,77.50
2017-04-27T01:39:04.068Z,77.50
2017-04-27T01:41:32.348Z,77.00
2017-04-27T01:44:00.624Z,77.30
2017-04-27T01:46:28.945Z,77.60
2017-04-27T01:48:57.337Z,77.80
2017-04-27T01:51:25.717Z,78.10
2017-04-27T01:53:54.386Z,78.50
2017-04-27T01:56:22.666Z,78.90
2017-04-27T01:58:50.944Z,79.10
2017-04-27T02:01:19.564Z,79.00
2017-04-27T02:03:47.842Z,78.90
2017-04-27T02:06:16.123Z,79.10
2017-04-27T02:08:45.185Z,78.80
2017-04-27T02:11:13.464Z,78.90
2017-04-27T02:13:41.736Z,79.00
2017-04-27T02:16:10.045Z,79.00
2017-04-27T02:18:39.068Z,79.00
2017-04-27T02:21:07.346Z,79.00
2017-04-27T02:23:35.665Z,78.90
2017-04-27T02:26:03.950Z,79.00
2017-04-27T02:28:32.230Z,78.60
2017-04-27T02:31:00.889Z,78.40
2017-04-27T02:33:29.162Z,78.70
2017-04-27T02:35:57.441Z,78.70
2017-04-27T02:38:25.761Z,78.60
2017-04-27T02:40:54.777Z,78.70
2017-04-27T02:43:23.058Z,78.80
2017-04-27T02:45:51.356Z,78.50
2017-04-27T02:48:19.637Z,78.70
2017-04-27T02:50:47.961Z,78.70
2017-04-27T02:53:16.979Z,78.70
2017-04-27T02:55:45.273Z,78.70
2017-04-27T02:58:13.868Z,78.70
2017-04-27T03:00:42.140Z,79.00
2017-04-27T03:03:10.421Z,79.40
2017-04-27T03:05:39.985Z,78.80
2017-04-27T03:08:08.993Z,78.70
2017-04-27T03:10:37.263Z,79.20
2017-04-27T03:13:04.797Z,79.10
2017-04-27T03:15:33.096Z,79.40
2017-04-27T03:18:02.108Z,79.00
2017-04-27T03:20:30.385Z,78.70
2017-04-27T03:22:58.769Z,78.70
2017-04-27T03:25:27.063Z,78.90
2017-04-27T03:27:55.345Z,79.20
2017-04-27T03:30:23.649Z,79.50
2017-04-27T03:32:51.918Z,79.50
2017-04-27T03:35:20.192Z,79.50
2017-04-27T03:37:48.504Z,79.50
2017-04-27T03:40:17.515Z,79.50
2017-04-27T03:42:45.819Z,79.50
2017-04-27T03:45:14.206Z,79.40
2017-04-27T03:47:42.579Z,79.40
2017-04-27T03:50:10.856Z,79.20
2017-04-27T03:52:39.156Z,79.30
2017-04-27T03:55:07.511Z,79.00
2017-04-27T03:57:35.991Z,79.00
2017-04-27T04:00:04.260Z,79.00
2017-04-27T04:02:32.540Z,79.20
2017-04-27T04:05:00.848Z,79.30
2017-04-27T04:07:30.125Z,79.30
2017-04-27T04:09:58.392Z,79.40
2017-04-27T04:12:26.701Z,79.30
2017-04-27T04:14:54.972Z,79.00
2017-04-27T04:17:23.327Z,79.10
2017-04-27T04:19:51.640Z,79.20
2017-04-27T04:22:19.908Z,79.20
2017-04-27T04:24:48.268Z,79.40
2017-04-27T04:27:16.577Z,79.40
2017-04-27T04:29:44.927Z,79.60
2017-04-27T04:32:13.196Z,79.60
2017-04-27T04:34:41.583Z,78.70
2017-04-27T04:37:09.850Z,78.20
2017-04-27T04:39:38.111Z,78.30
2017-04-27T04:42:06.424Z,78.20
2017-04-27T04:44:34.701Z,77.90
2017-04-27T04:47:02.981Z,77.60
2017-04-27T04:49:31.452Z,77.90
2017-04-27T04:51:59.729Z,78.00
2017-04-27T04:54:28.092Z,78.10
2017-04-27T04:56:56.690Z,78.00
2017-04-27T04:59:24.960Z,78.10
2017-04-27T05:01:53.232Z,78.40
2017-04-27T05:04:22.945Z,78.50
2017-04-27T05:06:51.207Z,78.50
2017-04-27T05:09:19.508Z,78.10
2017-04-27T05:11:47.884Z,77.90
2017-04-27T05:14:16.163Z,77.70
2017-04-27T05:16:44.440Z,77.70
2017-04-27T05:19:12.763Z,78.10
2017-04-27T05:21:41.779Z,78.30
2017-04-27T05:24:10.056Z,78.50
2017-04-27T05:26:38.359Z,78.60
2017-04-27T05:29:06.636Z,78.50
2017-04-27T05:31:34.911Z,78.50
2017-04-27T05:34:03.316Z,78.60
2017-04-27T05:36:31.664Z,78.80
2017-04-27T05:38:59.941Z,78.80
2017-04-27T05:41:28.247Z,78.90
2017-04-27T05:43:56.515Z,78.80
2017-04-27T05:46:24.828Z,78.50
2017-04-27T05:48:53.844Z,78.50
2017-04-27T05:51:22.147Z,78.20
2017-04-27T05:53:50.454Z,77.80
2017-04-27T05:56:18.727Z,77.10
2017-04-27T05:58:47.001Z,76.50
2017-04-27T06:01:15.324Z,76.60
2017-04-27T06:03:43.600Z,76.10
2017-04-27T06:06:11.883Z,75.50
2017-04-27T06:11:14.907Z,74.90
2017-04-27T06:13:43.208Z,74.20
2017-04-27T06:16:11.571Z,73.90
2017-04-27T06:18:39.840Z,73.90
2017-04-27T06:21:08.163Z,73.80
2017-04-27T06:23:36.512Z,73.70
2017-04-27T06:26:04.888Z,73.50
2017-04-27T06:28:33.268Z,73.20
2017-04-27T06:31:01.543Z,72.90
2017-04-27T06:33:29.816Z,72.70
2017-04-27T06:35:58.120Z,72.50
2017-04-27T06:38:26.471Z,71.70
2017-04-27T06:40:54.747Z,71.30
2017-04-27T06:43:23.060Z,70.50
2017-04-27T06:45:51.339Z,69.70
2017-04-27T06:48:19.614Z,68.80
2017-04-27T06:50:47.927Z,68.60
2017-04-27T06:53:16.208Z,68.40
2017-04-27T06:55:44.485Z,68.30
2017-04-27T06:58:12.797Z,68.10
2017-04-27T07:00:41.069Z,67.50
2017-04-27T07:03:09.346Z,66.10
2017-04-27T07:05:37.928Z,64.60
2017-04-27T07:08:06.192Z,63.90
2017-04-27T07:10:34.795Z,63.60
2017-04-27T07:13:03.199Z,63.60
2017-04-27T07:15:31.468Z,63.30
2017-04-27T07:17:59.880Z,63.70
2017-04-27T07:20:28.936Z,63.50
2017-04-27T07:22:57.219Z,62.90
2017-04-27T07:25:25.496Z,62.40
2017-04-27T07:27:53.825Z,62.40
2017-04-27T07:30:22.101Z,61.60
2017-04-27T07:32:50.376Z,61.20
2017-04-27T07:35:18.691Z,60.30
2017-04-27T07:37:46.965Z,59.40
2017-04-27T07:40:15.238Z,58.90
2017-04-27T07:42:43.556Z,58.10
2017-04-27T07:45:12.578Z,57.50
2017-04-27T07:47:40.855Z,57.40
2017-04-27T07:50:09.175Z,55.30
2017-04-27T07:52:37.449Z,55.00
2017-04-27T07:55:05.729Z,53.10
2017-04-27T07:57:34.053Z,53.00
2017-04-27T08:00:02.337Z,53.10
2017-04-27T08:02:30.613Z,53.80
2017-04-27T08:04:58.917Z,52.50
2017-04-27T08:07:27.221Z,51.90
2017-04-27T08:09:55.492Z,50.10
2017-04-27T08:12:23.829Z,50.10
2017-04-27T08:14:52.109Z,48.20
2017-04-27T08:17:20.417Z,46.70
2017-04-27T08:19:48.728Z,45.60
2017-04-27T08:22:17.742Z,45.60
2017-04-27T08:24:46.761Z,45.20
2017-04-27T08:27:15.074Z,45.00
2017-04-27T08:29:43.344Z,42.80
2017-04-27T08:32:11.626Z,42.70
2017-04-27T08:34:40.198Z,43.30
2017-04-27T08:37:08.472Z,43.40
2017-04-27T08:39:36.749Z,42.30
2017-04-27T08:42:05.082Z,42.80
2017-04-27T08:44:33.357Z,42.70
2017-04-27T08:47:02.375Z,41.70
2017-04-27T08:49:30.882Z,41.10
2017-04-27T08:51:59.153Z,40.20
2017-04-27T08:54:27.429Z,40.00
2017-04-27T08:56:55.745Z,36.60
2017-04-27T08:59:24.012Z,35.70
2017-04-27T09:01:52.284Z,35.10
2017-04-27T09:04:20.905Z,36.50
2017-04-27T09:06:49.178Z,35.40
2017-04-27T09:09:17.452Z,35.40
2017-04-27T09:11:46.495Z,35.10
2017-04-27T09:14:14.764Z,35.70
2017-04-27T09:16:43.034Z,35.20
2017-04-27T09:19:11.737Z,35.60
2017-04-27T09:21:40.013Z,34.90
2017-04-27T09:24:08.292Z,36.60
2017-04-27T09:26:36.597Z,33.60
2017-04-27T09:29:04.887Z,32.50
2017-04-27T09:31:33.905Z,32.10
2017-04-27T09:34:02.206Z,32.60
2017-04-27T09:36:30.477Z,35.20
2017-04-27T09:38:58.758Z,32.80
2017-04-27T09:41:27.081Z,32.00
2017-04-27T09:43:55.365Z,31.00
2017-04-27T09:46:24.381Z,30.80
2017-04-27T09:48:52.680Z,30.40
2017-04-27T09:51:20.959Z,31.40
2017-04-27T09:53:49.266Z,30.70
2017-04-27T09:56:17.573Z,30.00
2017-04-27T09:58:46.591Z,30.50
2017-04-27T10:01:14.999Z,30.30
2017-04-27T10:03:43.273Z,29.30
2017-04-27T10:06:11.553Z,30.00
2017-04-27T10:08:39.852Z,29.80
2017-04-27T10:11:08.125Z,30.40
2017-04-27T10:13:36.401Z,30.50
2017-04-27T10:16:04.714Z,29.70
2017-04-27T10:18:32.994Z,29.80
2017-04-27T10:21:01.272Z,30.70
2017-04-27T10:23:29.573Z,31.50
2017-04-27T10:25:57.856Z,32.10
2017-04-27T10:28:26.137Z,31.40
2017-04-27T10:30:54.457Z,29.80
2017-04-27T10:33:22.738Z,29.20
2017-04-27T10:35:51.764Z,29.30
2017-04-27T10:38:20.064Z,29.40
2017-04-27T10:40:48.336Z,29.10
2017-04-27T10:43:16.613Z,28.30
2017-04-27T10:45:45.105Z,27.10
2017-04-27T10:48:13.384Z,26.10
2017-04-27T10:50:41.673Z,24.40
2017-04-27T10:53:10.315Z,25.40
2017-04-27T10:55:38.587Z,26.80
2017-04-27T10:58:06.865Z,27.70
2017-04-27T11:00:35.283Z,29.10
2017-04-27T11:03:03.560Z,29.20
2017-04-27T11:05:31.835Z,29.70
2017-04-27T11:08:01.058Z,30.70
2017-04-27T11:10:29.329Z,30.00
2017-04-27T11:12:57.611Z,30.50
2017-04-27T11:15:25.936Z,30.30
2017-04-27T11:17:54.218Z,29.70
2017-04-27T11:20:23.237Z,29.40
2017-04-27T11:22:51.557Z,28.50
2017-04-27T11:25:19.828Z,27.60
2017-04-27T11:27:48.106Z,27.50
2017-04-27T11:30:16.417Z,27.10
2017-04-27T11:32:44.691Z,26.70
2017-04-27T11:35:13.745Z,26.70
2017-04-27T11:37:42.062Z,24.60
2017-04-27T11:40:11.085Z,25.60
2017-04-27T11:42:39.361Z,26.00
2017-04-27T11:45:07.678Z,26.00
2017-04-27T11:47:36.868Z,26.80
2017-04-27T11:50:05.169Z,26.90
2017-04-27T11:52:33.484Z,25.80
2017-04-27T11:55:01.784Z,25.50
2017-04-27T11:57:30.061Z,26.00
2017-04-27T11:59:58.336Z,26.10
2017-04-27T12:02:26.664Z,25.70
2017-04-27T12:04:54.955Z,24.90
2017-04-27T12:07:23.970Z,24.70
2017-04-27T12:09:52.289Z,25.10
2017-04-27T12:12:20.668Z,24.80
2017-04-27T12:14:48.940Z,24.60
2017-04-27T12:17:17.349Z,24.90
2017-04-27T12:19:45.628Z,25.80
2017-04-27T12:22:13.901Z,26.20
2017-04-27T12:24:42.224Z,26.00
2017-04-27T12:27:10.498Z,26.60
2017-04-27T12:29:38.775Z,25.90
2017-04-27T12:32:07.493Z,25.60
2017-04-27T12:34:35.764Z,25.20
2017-04-27T12:37:04.041Z,24.60
2017-04-27T12:39:32.356Z,25.10
2017-04-27T12:42:00.632Z,26.30
2017-04-27T12:44:28.909Z,24.60
2017-04-27T12:46:57.226Z,23.60
2017-04-27T12:49:25.517Z,23.60
2017-04-27T12:51:53.793Z,23.90
2017-04-27T12:54:22.109Z,23.60
2017-04-27T12:56:50.385Z,23.50
2017-04-27T12:59:18.664Z,23.70
2017-04-27T13:01:46.992Z,23.40
2017-04-27T13:04:15.268Z,23.70
2017-04-27T13:06:43.553Z,22.00
2017-04-27T13:09:11.856Z,22.30
2017-04-27T13:11:40.138Z,22.20
2017-04-27T13:14:08.424Z,22.50
2017-04-27T13:16:36.741Z,22.20
2017-04-27T13:19:05.015Z,22.50
2017-04-27T13:21:33.293Z,23.20
2017-04-27T13:24:01.593Z,23.20
2017-04-27T13:26:29.872Z,23.20
2017-04-27T13:28:58.153Z,24.00
2017-04-27T13:31:26.457Z,23.90
2017-04-27T13:33:54.752Z,24.10
2017-04-27T13:36:23.028Z,24.60
2017-04-27T13:38:51.346Z,25.10
2017-04-27T13:41:19.638Z,24.50
2017-04-27T13:43:47.913Z,23.90
2017-04-27T13:46:16.212Z,24.70
2017-04-27T13:48:44.495Z,24.90
2017-04-27T13:51:12.960Z,24.20
2017-04-27T13:53:41.238Z,24.10
2017-04-27T13:56:09.525Z,24.10
2017-04-27T13:58:38.308Z,24.20
2017-04-27T14:01:06.589Z,23.90
2017-04-27T14:03:34.875Z,23.70
2017-04-27T14:06:03.202Z,23.20
2017-04-27T14:08:31.473Z,23.40
2017-04-27T14:10:59.757Z,23.70
2017-04-27T14:13:28.518Z,24.00
2017-04-27T14:15:57.560Z,24.70
2017-04-27T14:18:25.841Z,24.70
2017-04-27T14:20:54.147Z,25.50
2017-04-27T14:23:22.452Z,25.80
2017-04-27T14:25:51.464Z,26.80
2017-04-27T14:28:19.789Z,26.70
2017-04-27T14:30:48.070Z,27.20
2017-04-27T14:33:16.350Z,27.80
2017-04-27T14:35:44.665Z,28.10
2017-04-27T14:38:12.937Z,27.40
2017-04-27T14:40:41.953Z,27.50
2017-04-27T14:43:10.660Z,27.00
2017-04-27T14:45:38.962Z,25.70
2017-04-27T14:48:07.241Z,25.40
2017-04-27T14:50:35.649Z,26.10
2017-04-27T14:53:03.925Z,26.10
2017-04-27T14:55:32.946Z,25.30
2017-04-27T14:58:01.267Z,25.70
2017-04-27T15:00:29.549Z,26.10
2017-04-27T15:02:57.829Z,26.20
2017-04-27T15:05:26.133Z,25.20
2017-04-27T15:07:54.409Z,23.60
2017-04-27T15:10:23.424Z,23.40
2017-04-27T15:12:51.705Z,23.60
2017-04-27T15:15:19.980Z,23.70
2017-04-27T15:17:48.266Z,23.40
2017-04-27T15:20:16.550Z,23.50
2017-04-27T15:22:44.832Z,23.40
2017-04-27T15:25:13.166Z,23.70
2017-04-27T15:27:41.477Z,23.10
2017-04-27T15:30:09.751Z,22.60
2017-04-27T15:32:38.025Z,22.80
2017-04-27T15:35:06.307Z,22.20
2017-04-27T15:37:34.580Z,22.00
2017-04-27T15:40:02.864Z,22.30
2017-04-27T15:42:31.662Z,21.40
2017-04-27T15:45:00.143Z,22.00
2017-04-27T15:47:28.625Z,23.80
2017-04-27T15:49:57.210Z,25.70
2017-04-27T15:52:25.996Z,26.10
2017-04-27T15:54:54.478Z,25.80
2017-04-27T15:57:23.606Z,25.70
2017-04-27T15:59:54.822Z,25.70
2017-04-27T16:02:23.493Z,25.80
2017-04-27T16:04:51.850Z,26.20
2017-04-27T16:07:20.148Z,26.50
2017-04-27T16:09:48.571Z,27.20
2017-04-27T16:12:17.841Z,27.70
2017-04-27T16:14:46.257Z,28.00
2017-04-27T16:17:15.419Z,28.20
2017-04-27T16:19:43.900Z,28.30
2017-04-27T16:22:12.831Z,28.30
2017-04-27T16:24:42.093Z,27.70
2017-04-27T16:27:10.573Z,27.90
2017-04-27T16:29:38.882Z,28.60
2017-04-27T16:32:07.332Z,28.50
2017-04-27T16:34:35.917Z,27.60
2017-04-27T16:37:04.500Z,28.90
2017-04-27T16:39:32.825Z,28.70
2017-04-27T16:42:01.845Z,28.30
2017-04-27T16:44:30.122Z,28.10
2017-04-27T16:46:58.399Z,28.20
2017-04-27T16:49:26.674Z,28.60
2017-04-27T16:51:54.949Z,29.00
2017-04-27T16:54:23.229Z,29.40
2017-04-27T16:56:51.505Z,29.30
2017-04-27T16:59:19.820Z,29.50
2017-04-27T17:01:48.106Z,29.20
2017-04-27T17:04:16.381Z,29.70
2017-04-27T17:06:44.656Z,31.20
2017-04-27T17:09:12.934Z,31.70
2017-04-27T17:11:41.204Z,32.40
2017-04-27T17:14:09.490Z,32.10
2017-04-27T17:16:38.160Z,32.30
2017-04-27T17:19:06.444Z,32.80
2017-04-27T17:21:34.725Z,32.90
2017-04-27T17:24:03.002Z,33.30
2017-04-27T17:26:31.281Z,33.60
2017-04-27T17:28:59.565Z,34.70
2017-04-27T17:31:27.888Z,35.20
2017-04-27T17:33:56.174Z,35.00
2017-04-27T17:36:24.462Z,35.60
2017-04-27T17:38:52.761Z,35.90
2017-04-27T17:41:21.046Z,36.60
2017-04-27T17:43:49.313Z,36.20
2017-04-27T17:46:17.585Z,36.70
2017-04-27T17:48:45.889Z,37.50
2017-04-27T17:51:14.164Z,35.90
2017-04-27T17:53:42.444Z,35.20
2017-04-27T17:56:10.717Z,34.80
2017-04-27T17:58:38.992Z,34.50
2017-04-27T18:01:07.312Z,34.80
2017-04-27T18:03:35.589Z,33.40
2017-04-27T18:06:03.864Z,34.10
2017-04-27T18:08:32.141Z,32.80
2017-04-27T18:11:00.421Z,30.70
2017-04-27T18:13:28.702Z,31.00
2017-04-27T18:15:56.988Z,31.50
2017-04-27T18:18:25.318Z,31.40
2017-04-27T18:20:54.349Z,31.50
2017-04-27T18:23:22.625Z,32.30
2017-04-27T18:25:50.910Z,32.80
2017-04-27T18:28:19.210Z,33.50
2017-04-27T18:30:47.490Z,34.20
2017-04-27T18:33:15.766Z,33.70
2017-04-27T18:35:44.083Z,35.20
2017-04-27T18:38:13.105Z,35.90
2017-04-27T18:40:41.381Z,37.00
2017-04-27T18:43:09.653Z,37.20
2017-04-27T18:45:37.920Z,37.10
2017-04-27T18:48:06.238Z,37.00
2017-04-27T18:50:34.545Z,36.90
2017-04-27T18:53:02.819Z,36.80
2017-04-27T18:55:31.102Z,36.80
2017-04-27T18:58:00.161Z,37.40
2017-04-27T19:00:28.432Z,37.70
2017-04-27T19:02:56.705Z,38.20
2017-04-27T19:05:24.982Z,38.30
2017-04-27T19:07:53.256Z,38.10
2017-04-27T19:10:21.532Z,38.40
2017-04-27T19:12:49.854Z,38.70
2017-04-27T19:15:18.156Z,39.50
2017-04-27T19:17:46.434Z,40.20
2017-04-27T19:20:14.721Z,40.50
2017-04-27T19:22:42.993Z,40.40
2017-04-27T19:25:11.269Z,41.60
2017-04-27T19:27:39.545Z,41.90
2017-04-27T19:30:07.821Z,42.20
2017-04-27T19:32:36.124Z,42.20
2017-04-27T19:35:04.401Z,42.40
2017-04-27T19:37:32.705Z,42.60
2017-04-27T19:40:00.976Z,42.90
2017-04-27T19:42:29.292Z,43.00
2017-04-27T19:44:58.393Z,43.80
2017-04-27T19:47:27.408Z,43.70
2017-04-27T19:49:55.698Z,43.70
2017-04-27T19:52:23.980Z,43.70
2017-04-27T19:54:52.253Z,43.70
2017-04-27T19:57:20.528Z,45.00
2017-04-27T19:59:48.843Z,45.60
2017-04-27T20:02:17.122Z,46.00
2017-04-27T20:04:45.393Z,46.30
2017-04-27T20:07:14.619Z,45.90
2017-04-27T20:09:43.640Z,46.10
2017-04-27T20:12:11.913Z,46.30
2017-04-27T20:14:40.188Z,46.10
2017-04-27T20:17:08.490Z,46.10
2017-04-27T20:19:36.766Z,46.50
2017-04-27T20:22:05.081Z,46.60
2017-04-27T20:24:33.356Z,47.10
2017-04-27T20:27:01.631Z,47.40
2017-04-27T20:29:29.907Z,47.30
2017-04-27T20:31:58.189Z,47.50
2017-04-27T20:34:26.461Z,47.30
2017-04-27T20:36:54.757Z,47.20
2017-04-27T20:39:23.794Z,47.50
2017-04-27T20:41:52.070Z,47.50
2017-04-27T20:44:20.341Z,47.50
2017-04-27T20:46:48.616Z,47.30
2017-04-27T20:49:16.893Z,47.70
2017-04-27T20:51:45.173Z,47.60
2017-04-27T20:54:13.449Z,47.50
2017-04-27T20:56:41.720Z,47.50
2017-04-27T20:59:09.998Z,47.20
2017-04-27T21:01:38.306Z,47.20
2017-04-27T21:04:06.580Z,47.10
2017-04-27T21:06:34.848Z,47.20
2017-04-27T21:09:03.116Z,46.70
2017-04-27T21:11:31.421Z,46.60
2017-04-27T21:13:59.699Z,46.50
2017-04-27T21:16:27.974Z,46.60
2017-04-27T21:18:56.244Z,46.70
2017-04-27T21:21:24.619Z,46.90
2017-04-27T21:23:52.897Z,47.50
2017-04-27T21:26:21.166Z,46.80
2017-04-27T21:28:49.441Z,46.90
2017-04-27T21:31:17.717Z,47.20
2017-04-27T21:33:45.988Z,47.30
2017-04-27T21:36:15.401Z,47.40
2017-04-27T21:38:43.673Z,47.80
2017-04-27T21:41:11.941Z,48.10
2017-04-27T21:43:40.213Z,48.00
2017-04-27T21:46:08.480Z,48.10
2017-04-27T21:48:36.787Z,48.00
2017-04-27T21:51:05.061Z,48.10
2017-04-27T21:53:33.749Z,48.30
2017-04-27T21:56:02.021Z,48.40
2017-04-27T21:58:30.293Z,48.40
2017-04-27T22:00:58.564Z,48.70
2017-04-27T22:03:26.843Z,48.80
2017-04-27T22:05:55.114Z,48.80
2017-04-27T22:08:23.413Z,48.90
2017-04-27T22:10:51.712Z,49.00
2017-04-27T22:13:19.985Z,49.10
2017-04-27T22:15:48.252Z,49.20
2017-04-27T22:18:16.528Z,49.50
2017-04-27T22:20:44.804Z,49.60
2017-04-27T22:23:13.118Z,49.80
2017-04-27T22:25:41.773Z,49.90
2017-04-27T22:28:10.045Z,49.90
2017-04-27T22:30:38.322Z,50.20
2017-04-27T22:33:06.608Z,50.50
2017-04-27T22:35:34.882Z,50.50
2017-04-27T22:38:03.157Z,50.70
2017-04-27T22:40:31.621Z,51.10
2017-04-27T22:42:59.897Z,51.60
2017-04-27T22:45:28.281Z,51.70
2017-04-27T22:47:56.549Z,51.50
2017-04-27T22:50:24.824Z,51.20
2017-04-27T22:52:53.098Z,51.60
2017-04-27T22:55:21.376Z,51.60
2017-04-27T22:57:49.889Z,51.60
2017-04-27T23:00:18.165Z,51.60
2017-04-27T23:02:46.435Z,51.60
2017-04-27T23:05:14.713Z,51.50
2017-04-27T23:07:42.982Z,51.90
2017-04-27T23:10:11.256Z,52.30
2017-04-27T23:12:39.837Z,52.50
2017-04-27T23:15:08.109Z,52.80
2017-04-27T23:17:36.381Z,53.00
2017-04-27T23:20:04.666Z,53.30
2017-04-27T23:22:32.936Z,53.70
2017-04-27T23:25:01.209Z,53.80
2017-04-27T23:27:29.526Z,54.00
2017-04-27T23:29:57.802Z,54.20
2017-04-27T23:32:26.074Z,54.40
2017-04-27T23:34:54.353Z,54.40
2017-04-27T23:37:22.637Z,54.80
2017-04-27T23:39:51.705Z,54.80
2017-04-27T23:42:19.989Z,55.00
2017-04-27T23:44:48.269Z,55.30
2017-04-27T23:47:16.557Z,55.60
2017-04-27T23:49:44.833Z,55.90
2017-04-27T23:52:13.493Z,56.20
2017-04-27T23:54:41.785Z,56.80
2017-04-27T23:57:10.137Z,57.00
2017-04-27T23:59:38.441Z,57.60
